Weather History for Glenwood, MN

Change the Weather History Date:

Wednesday, November 2, 2011

  Actual Average Record
Temperature  
Mean Temperature 39 °F -  
Max Temperature 46 °F 46 °F 69 °F (1965)
Min Temperature 30 °F 28 °F -3 °F (1951)
Degree Days  
Heating Degree Days 26    
Moisture  
Dew Point 25 °F    
Average Humidity 57    
Maximum Humidity 80    
Minimum Humidity 34    
Precipitation  
Precipitation 0.00 in - - ()
Sea Level Pressure  
Sea Level Pressure 30.22 in    
Wind  
Wind Speed 8 mph (NW)    
Max Wind Speed 18 mph    
Max Gust Speed 23 mph    
Visibility 10 miles    
Events      
Averages and records for this station are not official NWS values.
T = Trace of Precipitation, MM = Missing Value Source: NWS Daily Summary

Daily Weather History Graph

Daily Weather History Graph

Search for Another Location

Airport:

Trip Planner

Search our weather history database for the weather conditions in past years. The results will help you decide how hot, cold, wet, or windy it might be!

Date:

Astronomy

Nov. 02, 2011 Rise Set
Actual Time 8:02 AM CDT 6:06 PM CDT
Civil Twilight 7:31 AM CDT 6:37 PM CDT
Nautical Twilight 6:55 AM CDT 7:13 PM CDT
Astronomical Twilight 6:21 AM CDT 7:47 PM CDT
Moon 2:21 PM CDT (11/2) No Moon Set
Length of Visible Light 11h 06m
Length of Day
10h 04m
Waxing Crescent, 50% of the Moon is Illuminated
Nov 2
Waxing Crescent
Nov 10
Full
Nov 18
Last Quarter
Nov 25
New
Dec 2
First Quarter

Hourly Weather History & Observations

Time (CDT) Temp. Windchill Dew Point Humidity Pressure Visibility Wind Dir Wind Speed Gust Speed Precip Events Conditions
12:14 AM 42.8 °F 38.6 °F 30.2 °F 61% 30.11 in 10.0 mi WNW 6.9 mph - N/A   Mostly Cloudy
12:33 AM 42.8 °F 38.6 °F 30.2 °F 61% 30.12 in 10.0 mi NW 6.9 mph - N/A   Scattered Clouds
12:54 AM 42.8 °F 39.3 °F 30.2 °F 61% 30.12 in 10.0 mi NW 5.8 mph - N/A   Scattered Clouds
1:14 AM 42.8 °F 38.0 °F 28.4 °F 57% 30.12 in 10.0 mi NNW 8.1 mph - N/A   Clear
1:34 AM 42.8 °F 40.1 °F 28.4 °F 57% 30.14 in 10.0 mi NW 4.6 mph - N/A   Clear
1:54 AM 41.0 °F 39.0 °F 28.4 °F 61% 30.14 in 10.0 mi NW 3.5 mph - N/A   Clear
2:13 AM 41.0 °F 38.0 °F 30.2 °F 65% 30.15 in 10.0 mi WNW 4.6 mph - N/A   Clear
2:33 AM 41.0 °F 37.1 °F 30.2 °F 65% 30.14 in 10.0 mi WNW 5.8 mph - N/A   Scattered Clouds
2:54 AM 41.0 °F 38.0 °F 30.2 °F 65% 30.15 in 10.0 mi West 4.6 mph - N/A   Mostly Cloudy
3:14 AM 41.0 °F 37.1 °F 28.4 °F 61% 30.15 in 10.0 mi WNW 5.8 mph - N/A   Overcast
3:34 AM 41.0 °F 37.1 °F 28.4 °F 61% 30.15 in 10.0 mi NW 5.8 mph - N/A   Scattered Clouds
3:54 AM 39.2 °F 34.2 °F 28.4 °F 65% 30.15 in 10.0 mi NW 6.9 mph - N/A   Clear
4:54 AM 39.2 °F 35.0 °F 28.4 °F 65% 30.17 in 10.0 mi WNW 5.8 mph - N/A   Scattered Clouds
5:53 AM 39.2 °F 33.6 °F 28.4 °F 65% 30.18 in 10.0 mi NNW 8.1 mph - N/A   Clear
6:13 AM 39.2 °F 33.6 °F 28.4 °F 65% 30.19 in - NW 8.1 mph - N/A   Clear
6:33 AM 39.2 °F 33.6 °F 28.4 °F 65% 30.20 in 10.0 mi NW 8.1 mph - N/A   Clear
6:54 AM 39.2 °F 34.2 °F 28.4 °F 65% 30.20 in 10.0 mi NW 6.9 mph - N/A   Clear
7:33 AM 37.4 °F 32.8 °F 28.4 °F 70% 30.21 in 10.0 mi NW 5.8 mph - N/A   Clear
7:54 AM 35.6 °F 30.7 °F 28.4 °F 75% 30.22 in 10.0 mi NW 5.8 mph - N/A   Clear
8:13 AM 35.6 °F 30.7 °F 28.4 °F 75% 30.23 in 10.0 mi NW 5.8 mph - N/A   Clear
8:34 AM 37.4 °F 32.1 °F 28.4 °F 70% 30.23 in 10.0 mi NNW 6.9 mph - N/A   Clear
8:53 AM 37.4 °F 30.8 °F 26.6 °F 65% 30.23 in 10.0 mi NNW 9.2 mph - N/A   Clear
9:53 AM 37.4 °F 31.4 °F 28.4 °F 70% 30.25 in 10.0 mi NW 8.1 mph - N/A   Clear
10:13 AM 39.2 °F 33.0 °F 26.6 °F 61% 30.26 in 10.0 mi NW 9.2 mph - N/A   Clear
10:34 AM 39.2 °F 32.5 °F 26.6 °F 61% 30.26 in 10.0 mi NW 10.4 mph - N/A   Clear
10:53 AM 39.2 °F 32.0 °F 26.6 °F 61% 30.25 in 10.0 mi NNW 11.5 mph - N/A   Clear
11:14 AM 42.8 °F 36.2 °F 26.6 °F 53% 30.25 in 10.0 mi NNW 12.7 mph - N/A   Clear
11:34 AM 44.6 °F 37.8 °F 24.8 °F 46% 30.26 in 10.0 mi NNW 15.0 mph - N/A   Clear
12:14 PM 42.8 °F 37.0 °F 24.8 °F 49% 30.27 in 10.0 mi NW 10.4 mph - N/A   Clear
12:33 PM 44.6 °F 37.8 °F 24.8 °F 46% 30.26 in 10.0 mi NNW 15.0 mph 20.7 mph N/A   Clear
12:54 PM 44.6 °F 38.8 °F 24.8 °F 46% 30.26 in 10.0 mi NNW 11.5 mph - N/A   Clear
1:14 PM 44.6 °F 37.2 °F 24.8 °F 46% 30.25 in 10.0 mi NW 17.3 mph 21.9 mph N/A   Clear
1:34 PM 46.4 °F 39.5 °F 24.8 °F 43% 30.24 in 10.0 mi NNW 17.3 mph 21.9 mph N/A   Clear
1:53 PM 46.4 °F 40.1 °F 24.8 °F 43% 30.23 in 10.0 mi NNW 15.0 mph 19.6 mph N/A   Clear
2:14 PM 46.4 °F 39.8 °F 23.0 °F 40% 30.23 in 10.0 mi NNW 16.1 mph 21.9 mph N/A   Clear
2:33 PM 46.4 °F 40.4 °F 21.2 °F 37% 30.21 in 10.0 mi North 13.8 mph 21.9 mph N/A   Clear
2:54 PM 46.4 °F 39.8 °F 23.0 °F 40% 30.21 in 10.0 mi NNW 16.1 mph 23.0 mph N/A   Clear
3:14 PM 46.4 °F 39.2 °F 21.2 °F 37% 30.22 in 10.0 mi NNW 18.4 mph - N/A   Clear
3:34 PM 46.4 °F 40.1 °F 23.0 °F 40% 30.23 in 10.0 mi NNW 15.0 mph 21.9 mph N/A   Clear
3:54 PM 46.4 °F 40.1 °F 23.0 °F 40% 30.23 in 10.0 mi NNW 15.0 mph 19.6 mph N/A   Clear
4:14 PM 46.4 °F 40.7 °F 19.4 °F 34% 30.24 in 10.0 mi NW 12.7 mph 21.9 mph N/A   Clear
4:34 PM 44.6 °F 37.2 °F 19.4 °F 37% 30.24 in 10.0 mi NNW 17.3 mph 21.9 mph N/A   Clear
4:54 PM 44.6 °F 37.4 °F 19.4 °F 37% 30.24 in 10.0 mi NNW 16.1 mph 19.6 mph N/A   Clear
5:13 PM 44.6 °F 38.8 °F 21.2 °F 39% 30.25 in 10.0 mi NNW 11.5 mph 17.3 mph N/A   Clear
5:34 PM 42.8 °F 37.5 °F 23.0 °F 46% 30.26 in 10.0 mi NNW 9.2 mph - N/A   Clear
5:53 PM 42.8 °F 36.6 °F 21.2 °F 42% 30.25 in 10.0 mi NNW 11.5 mph - N/A   Clear
6:14 PM 39.2 °F 32.0 °F 21.2 °F 49% 30.25 in 10.0 mi NNW 11.5 mph - N/A   Clear
6:34 PM 39.2 °F 32.5 °F 23.0 °F 52% 30.26 in 10.0 mi NNW 10.4 mph - N/A   Clear
6:54 PM 37.4 °F 30.8 °F 23.0 °F 56% 30.27 in 10.0 mi NNW 9.2 mph - N/A   Clear
7:14 PM 37.4 °F 32.1 °F 23.0 °F 56% 30.28 in 10.0 mi NW 6.9 mph - N/A   Clear
7:33 PM 35.6 °F 30.7 °F 23.0 °F 60% 30.28 in 10.0 mi NW 5.8 mph - N/A   Clear
7:54 PM 32.0 °F 25.6 °F 23.0 °F 69% 30.28 in 10.0 mi NW 6.9 mph - N/A   Clear
8:13 PM 33.8 °F 27.7 °F 23.0 °F 65% 30.28 in 10.0 mi NW 6.9 mph - N/A   Clear
8:34 PM 32.0 °F 27.5 °F 23.0 °F 69% 30.28 in 10.0 mi NW 4.6 mph - N/A   Clear
8:54 PM 33.8 °F 30.8 °F 23.0 °F 65% 30.28 in 10.0 mi NW 3.5 mph - N/A   Clear
9:14 PM 32.0 °F 28.7 °F 23.0 °F 69% 30.28 in 10.0 mi WNW 3.5 mph - N/A   Clear
9:34 PM 33.8 °F 30.8 °F 24.8 °F 70% 30.28 in 10.0 mi WNW 3.5 mph - N/A   Clear
9:54 PM 33.8 °F 30.8 °F 24.8 °F 70% 30.28 in 10.0 mi WNW 3.5 mph - N/A   Clear
10:14 PM 30.2 °F 25.4 °F 24.8 °F 80% 30.28 in 10.0 mi WNW 4.6 mph - N/A   Clear
10:34 PM 30.2 °F 25.4 °F 23.0 °F 75% 30.27 in 10.0 mi NW 4.6 mph - N/A   Clear
10:54 PM 30.2 °F 26.7 °F 23.0 °F 75% 30.27 in 10.0 mi NW 3.5 mph - N/A   Clear
11:13 PM 30.2 °F 23.4 °F 24.8 °F 80% 30.27 in 10.0 mi WNW 6.9 mph - N/A   Clear
11:34 PM 28.4 °F 22.2 °F 23.0 °F 80% 30.27 in 10.0 mi WNW 5.8 mph - N/A   Clear
11:54 PM 28.4 °F 21.2 °F 23.0 °F 80% 30.26 in 10.0 mi WNW 6.9 mph - N/A   Clear